Time;durP1;ratioP1;P1;durP2;ratioP2;P2;SDS_P1;SDS_P2;PMS_P1;PMS_P2;Temp;Humidity;BMP_temperature;BMP_pressure;BME280_temperature;BME280_humidity;BME280_pressure;Samples;Min_cycle;Max_cycle;Signal;HPM_P1;HPM_P2
2023/01/31 00:00:29;;;;;;;11.65;8.35;;;;;;;;;;10422650;28;20017;-47
2023/01/31 00:05:29;;;;;;;11.55;6.82;;;;;;;;;;10425368;28;20036;-50
2023/01/31 00:10:30;;;;;;;10.85;6.95;;;;;;;;;;10436083;28;20025;-49
2023/01/31 00:15:31;;;;;;;9.32;7.03;;;;;;;;;;10416486;28;20150;-49
2023/01/31 00:20:31;;;;;;;10.73;6.82;;;;;;;;;;10423349;28;20033;-50
2023/01/31 00:25:32;;;;;;;11.35;7.07;;;;;;;;;;10420998;28;20040;-48
2023/01/31 00:30:33;;;;;;;11.48;7.20;;;;;;;;;;10434785;28;20384;-48
2023/01/31 00:35:38;;;;;;;12.55;7.28;;;;;;;;;;10418918;28;20164;-47
2023/01/31 00:40:39;;;;;;;9.00;6.10;;;;;;;;;;10407020;28;20030;-46
2023/01/31 00:45:40;;;;;;;9.45;6.90;;;;;;;;;;10410639;28;20029;-50
2023/01/31 00:50:41;;;;;;;10.20;6.60;;;;;;;;;;10417367;28;20339;-50
2023/01/31 00:55:41;;;;;;;9.57;6.43;;;;;;;;;;10406766;28;20152;-49
2023/01/31 01:00:42;;;;;;;11.30;7.47;;;;;;;;;;10423065;28;20017;-47
2023/01/31 01:05:42;;;;;;;10.05;6.78;;;;;;;;;;10413319;28;20030;-48
2023/01/31 01:10:43;;;;;;;10.07;6.75;;;;;;;;;;10419380;28;20087;-50
2023/01/31 01:15:43;;;;;;;9.95;7.00;;;;;;;;;;10418007;28;20160;-50
2023/01/31 01:20:44;;;;;;;8.18;6.13;;;;;;;;;;10417929;28;20026;-47
2023/01/31 01:25:45;;;;;;;8.85;6.30;;;;;;;;;;10413937;28;20017;-46
2023/01/31 01:30:45;;;;;;;11.73;6.82;;;;;;;;;;10414794;28;20025;-49
2023/01/31 01:35:46;;;;;;;13.85;6.20;;;;;;;;;;10430654;28;20048;-46
2023/01/31 01:40:46;;;;;;;8.52;6.15;;;;;;;;;;10449535;28;20039;-50
2023/01/31 01:45:47;;;;;;;9.85;7.25;;;;;;;;;;10415380;28;20032;-50
2023/01/31 01:50:48;;;;;;;9.20;6.80;;;;;;;;;;10422251;28;20472;-50
2023/01/31 01:56:00;;;;;;;7.28;6.20;;;;;;;;;;10411707;28;20465;-51
2023/01/31 02:01:07;;;;;;;7.63;6.38;;;;;;;;;;10390179;28;20033;-48
2023/01/31 02:06:08;;;;;;;10.68;5.90;;;;;;;;;;10399291;28;20021;-46
2023/01/31 02:11:23;;;;;;;8.80;6.32;;;;;;;;;;10402348;28;20032;-46
2023/01/31 02:16:23;;;;;;;8.02;6.40;;;;;;;;;;10418600;28;20104;-46
2023/01/31 02:21:45;;;;;;;8.65;6.30;;;;;;;;;;10438352;28;20029;-46
2023/01/31 02:27:16;;;;;;;8.93;6.25;;;;;;;;;;10426703;28;20033;-49
2023/01/31 02:32:39;;;;;;;7.93;6.15;;;;;;;;;;10406942;28;20399;-48
2023/01/31 02:38:15;;;;;;;8.10;5.95;;;;;;;;;;10420291;28;20103;-48
2023/01/31 02:49:35;;;;;;;8.85;6.03;;;;;;;;;;10436412;28;20388;-49
2023/01/31 02:59:56;;;;;;;8.82;6.22;;;;;;;;;;10431500;28;20021;-47
2023/01/31 03:04:57;;;;;;;7.97;5.95;;;;;;;;;;10425677;28;20029;-46
2023/01/31 03:10:18;;;;;;;9.25;6.05;;;;;;;;;;10437187;28;20033;-47
2023/01/31 03:21:22;;;;;;;8.30;6.28;;;;;;;;;;10441470;28;20033;-48
2023/01/31 03:26:25;;;;;;;8.52;5.63;;;;;;;;;;10412896;28;20129;-47
2023/01/31 03:32:02;;;;;;;9.30;5.95;;;;;;;;;;10419826;28;20397;-56
2023/01/31 03:37:24;;;;;;;8.05;5.70;;;;;;;;;;10415450;28;20060;-49
2023/01/31 03:43:01;;;;;;;8.57;6.30;;;;;;;;;;10415697;28;20029;-47
2023/01/31 03:48:06;;;;;;;8.45;5.78;;;;;;;;;;10408843;28;20100;-49
2023/01/31 03:53:21;;;;;;;8.35;5.88;;;;;;;;;;10423118;28;20025;-46
2023/01/31 03:58:28;;;;;;;7.13;5.50;;;;;;;;;;10429882;28;20087;-47
2023/01/31 04:03:44;;;;;;;7.35;5.70;;;;;;;;;;10446906;28;20052;-47
2023/01/31 04:08:44;;;;;;;8.57;6.60;;;;;;;;;;10427783;28;20033;-50
2023/01/31 04:13:45;;;;;;;8.07;6.05;;;;;;;;;;10429577;28;20115;-49
2023/01/31 04:18:45;;;;;;;8.40;6.07;;;;;;;;;;10448821;28;20439;-47
2023/01/31 04:23:46;;;;;;;7.32;5.43;;;;;;;;;;10454201;28;20388;-49
2023/01/31 04:28:47;;;;;;;7.70;5.90;;;;;;;;;;10454054;28;20424;-49
2023/01/31 04:33:47;;;;;;;8.70;6.05;;;;;;;;;;10453575;28;20036;-48
2023/01/31 04:38:48;;;;;;;8.88;5.90;;;;;;;;;;10441760;28;20094;-49
2023/01/31 04:43:48;;;;;;;7.35;5.78;;;;;;;;;;10453703;28;20037;-51
2023/01/31 04:48:49;;;;;;;7.38;5.30;;;;;;;;;;10452950;28;20021;-49
2023/01/31 04:53:50;;;;;;;7.13;5.63;;;;;;;;;;10453674;28;20165;-48
2023/01/31 04:58:50;;;;;;;8.15;5.95;;;;;;;;;;10435323;28;20025;-48
2023/01/31 05:03:51;;;;;;;7.60;5.60;;;;;;;;;;10451089;28;20499;-46
2023/01/31 05:08:53;;;;;;;8.25;5.50;;;;;;;;;;10444696;28;20025;-49
2023/01/31 05:13:53;;;;;;;7.63;5.43;;;;;;;;;;10441963;28;20063;-49
2023/01/31 05:18:54;;;;;;;7.55;5.68;;;;;;;;;;10452571;28;20493;-49
2023/01/31 05:23:55;;;;;;;8.63;6.03;;;;;;;;;;10451838;28;20416;-51
2023/01/31 05:28:55;;;;;;;6.53;5.35;;;;;;;;;;10451893;28;20037;-59
2023/01/31 05:33:56;;;;;;;6.72;5.22;;;;;;;;;;10452032;28;20242;-47
2023/01/31 05:38:56;;;;;;;8.40;5.63;;;;;;;;;;10451221;28;20490;-46
2023/01/31 05:43:57;;;;;;;6.40;5.38;;;;;;;;;;10451443;28;20395;-50
2023/01/31 05:48:57;;;;;;;7.95;5.43;;;;;;;;;;10451077;28;20025;-48
2023/01/31 05:53:58;;;;;;;9.60;6.28;;;;;;;;;;10449717;28;20025;-53
2023/01/31 05:59:01;;;;;;;9.57;4.97;;;;;;;;;;10422828;28;20037;-49
2023/01/31 06:04:02;;;;;;;7.25;5.13;;;;;;;;;;10406606;28;20229;-52
2023/01/31 06:09:02;;;;;;;7.70;5.47;;;;;;;;;;10413634;28;20150;-46
2023/01/31 06:14:05;;;;;;;6.18;5.30;;;;;;;;;;10395634;28;20029;-46
2023/01/31 06:19:06;;;;;;;8.05;5.78;;;;;;;;;;10413605;28;20033;-51
2023/01/31 06:24:06;;;;;;;7.55;5.75;;;;;;;;;;10425682;28;20090;-51
2023/01/31 06:29:08;;;;;;;12.13;6.60;;;;;;;;;;10424949;28;20039;-49
2023/01/31 06:34:09;;;;;;;8.80;6.35;;;;;;;;;;10420259;28;20061;-49
2023/01/31 06:39:12;;;;;;;11.02;6.53;;;;;;;;;;10411828;28;20073;-47
2023/01/31 06:44:12;;;;;;;11.30;7.63;;;;;;;;;;10408392;28;20496;-48
2023/01/31 06:49:13;;;;;;;16.80;9.23;;;;;;;;;;10419378;28;20028;-49
2023/01/31 06:54:13;;;;;;;15.30;9.43;;;;;;;;;;10402600;28;20036;-51
2023/01/31 06:59:14;;;;;;;20.17;9.60;;;;;;;;;;10419987;28;20029;-51
2023/01/31 07:04:15;;;;;;;14.95;9.90;;;;;;;;;;10410314;28;20014;-50
2023/01/31 07:09:15;;;;;;;14.93;9.02;;;;;;;;;;10420290;28;20032;-49
2023/01/31 07:14:16;;;;;;;14.98;8.38;;;;;;;;;;10424545;28;20131;-49
2023/01/31 07:19:16;;;;;;;22.50;8.80;;;;;;;;;;10429001;28;20033;-49
2023/01/31 07:24:17;;;;;;;18.77;8.98;;;;;;;;;;10433178;28;20029;-48
2023/01/31 07:29:18;;;;;;;15.50;8.27;;;;;;;;;;10442378;28;20073;-48
2023/01/31 07:34:21;;;;;;;15.88;9.10;;;;;;;;;;10426472;28;20044;-47
2023/01/31 07:39:22;;;;;;;18.20;9.48;;;;;;;;;;10412832;28;20068;-47
2023/01/31 07:44:23;;;;;;;18.25;9.18;;;;;;;;;;10423363;28;20033;-52
2023/01/31 07:49:23;;;;;;;13.02;8.13;;;;;;;;;;10407776;28;20121;-47
2023/01/31 07:54:24;;;;;;;19.23;9.55;;;;;;;;;;10431996;28;20087;-49
2023/01/31 07:59:25;;;;;;;13.55;8.88;;;;;;;;;;10437366;28;20527;-48
2023/01/31 08:04:25;;;;;;;14.68;9.00;;;;;;;;;;10439052;28;20469;-48
2023/01/31 08:09:26;;;;;;;15.45;8.50;;;;;;;;;;10410199;28;20481;-48
2023/01/31 08:14:27;;;;;;;21.90;9.75;;;;;;;;;;10416175;28;20551;-50
2023/01/31 08:19:27;;;;;;;13.27;8.65;;;;;;;;;;10417363;28;20080;-52
2023/01/31 08:24:29;;;;;;;14.05;9.32;;;;;;;;;;10415105;28;20040;-50
2023/01/31 08:29:30;;;;;;;13.45;8.98;;;;;;;;;;10433531;28;20040;-49
2023/01/31 08:34:30;;;;;;;14.18;9.23;;;;;;;;;;10438828;28;20037;-50
2023/01/31 08:39:31;;;;;;;14.63;9.25;;;;;;;;;;10444377;28;20124;-49
2023/01/31 08:44:31;;;;;;;17.02;9.25;;;;;;;;;;10411539;28;20030;-51
2023/01/31 08:49:35;;;;;;;13.18;9.23;;;;;;;;;;10415711;28;20054;-52
2023/01/31 08:54:35;;;;;;;12.55;9.15;;;;;;;;;;10417015;28;20591;-52
2023/01/31 08:59:36;;;;;;;15.70;9.52;;;;;;;;;;10425339;28;20175;-54
2023/01/31 09:04:37;;;;;;;15.35;9.25;;;;;;;;;;10438945;28;20067;-58
2023/01/31 09:09:37;;;;;;;15.73;9.13;;;;;;;;;;10416236;28;20032;-49
2023/01/31 09:14:38;;;;;;;16.13;9.57;;;;;;;;;;10422710;28;20025;-49
2023/01/31 09:19:38;;;;;;;14.15;9.85;;;;;;;;;;10427475;28;20021;-51
2023/01/31 09:24:39;;;;;;;12.45;8.77;;;;;;;;;;10432472;28;20100;-52
2023/01/31 09:29:40;;;;;;;14.38;9.43;;;;;;;;;;10437421;28;20021;-47
2023/01/31 09:34:40;;;;;;;10.75;8.50;;;;;;;;;;10443389;28;20469;-51
2023/01/31 09:39:41;;;;;;;15.50;9.63;;;;;;;;;;10449328;28;20053;-48
2023/01/31 09:44:44;;;;;;;14.48;9.50;;;;;;;;;;10425365;28;20055;-52
2023/01/31 09:49:53;;;;;;;14.48;9.48;;;;;;;;;;10401296;28;20017;-48
2023/01/31 09:54:54;;;;;;;;;;;;;;;;;;10426759;28;20492;-47
2023/01/31 10:00:24;;;;;;;11.85;8.75;;;;;;;;;;10407970;28;19917;-47
2023/01/31 10:06:17;;;;;;;12.93;9.27;;;;;;;;;;10385674;28;20045;-53
2023/01/31 10:11:47;;;;;;;16.20;9.00;;;;;;;;;;10393916;28;20369;-51
2023/01/31 10:17:11;;;;;;;14.70;9.23;;;;;;;;;;10404242;28;20195;-50
2023/01/31 10:22:22;;;;;;;18.20;9.75;;;;;;;;;;10423435;28;20426;-52
2023/01/31 10:27:44;;;;;;;12.88;9.35;;;;;;;;;;10410977;28;20029;-53
2023/01/31 10:32:52;;;;;;;18.15;9.57;;;;;;;;;;10393872;28;20068;-51
2023/01/31 10:37:55;;;;;;;11.75;8.82;;;;;;;;;;10419684;23;20049;-62
2023/01/31 10:43:14;;;;;;;16.35;9.73;;;;;;;;;;10406584;28;20172;-62
2023/01/31 10:48:24;;;;;;;14.60;9.73;;;;;;;;;;10369104;28;20029;-62
2023/01/31 10:53:50;;;;;;;15.43;9.68;;;;;;;;;;10360038;28;20033;-59
2023/01/31 10:58:52;;;;;;;11.55;9.13;;;;;;;;;;10366892;28;20486;-54
2023/01/31 11:03:55;;;;;;;11.65;8.93;;;;;;;;;;10366833;28;20441;-61
2023/01/31 11:09:00;;;;;;;12.60;8.93;;;;;;;;;;10356129;28;20014;-60
2023/01/31 11:14:10;;;;;;;10.52;8.20;;;;;;;;;;10363573;28;20038;-62
2023/01/31 11:19:50;;;;;;;11.32;8.63;;;;;;;;;;10351003;28;20114;-63
2023/01/31 11:24:52;;;;;;;12.25;8.95;;;;;;;;;;10323427;28;20038;-61
2023/01/31 11:29:56;;;;;;;12.77;8.55;;;;;;;;;;10338245;28;20462;-61
2023/01/31 11:35:28;;;;;;;11.38;8.00;;;;;;;;;;10331613;28;20501;-60
2023/01/31 11:40:38;;;;;;;12.63;9.00;;;;;;;;;;10328892;28;20030;-62
2023/01/31 11:45:44;;;;;;;12.48;9.45;;;;;;;;;;10358532;28;20018;-62
2023/01/31 11:50:52;;;;;;;13.70;8.48;;;;;;;;;;10356344;28;20090;-60
2023/01/31 11:55:57;;;;;;;10.85;8.05;;;;;;;;;;10352760;28;20382;-62
2023/01/31 12:01:06;;;;;;;12.20;8.63;;;;;;;;;;10340352;28;20478;-59
2023/01/31 12:06:08;;;;;;;;;;;;;;;;;;10334231;28;20029;-60
2023/01/31 12:11:18;;;;;;;12.73;8.75;;;;;;;;;;10365821;28;19914;-61
2023/01/31 12:16:24;;;;;;;12.43;8.13;;;;;;;;;;10365294;28;20438;-59
2023/01/31 12:21:55;;;;;;;12.52;8.27;;;;;;;;;;10358357;28;20569;-59
2023/01/31 12:27:05;;;;;;;11.45;7.95;;;;;;;;;;10356244;28;20080;-61
2023/01/31 12:32:34;;;;;;;12.48;8.27;;;;;;;;;;10347926;28;20460;-63
2023/01/31 12:37:51;;;;;;;;;;;;;;;;;;10326395;28;20121;-57
2023/01/31 12:43:13;;;;;;;10.63;7.60;;;;;;;;;;10333066;28;20369;-54
2023/01/31 12:48:40;;;;;;;13.93;8.20;;;;;;;;;;10349981;28;20019;-54
2023/01/31 12:54:12;;;;;;;12.30;7.90;;;;;;;;;;10354137;28;20030;-58
2023/01/31 12:59:51;;;;;;;10.93;8.20;;;;;;;;;;10362607;28;20038;-59
2023/01/31 13:05:02;;;;;;;8.90;7.00;;;;;;;;;;10343376;28;20080;-59
2023/01/31 13:10:19;;;;;;;12.65;7.50;;;;;;;;;;10367034;28;20384;-54
2023/01/31 13:15:45;;;;;;;10.68;7.15;;;;;;;;;;10353917;28;20030;-55
2023/01/31 13:20:53;;;;;;;10.43;7.45;;;;;;;;;;10347784;28;20035;-58
2023/01/31 13:26:02;;;;;;;11.47;7.23;;;;;;;;;;10355356;28;20040;-55
2023/01/31 13:31:08;;;;;;;8.57;6.35;;;;;;;;;;10353437;28;20054;-55
2023/01/31 13:36:37;;;;;;;12.07;7.68;;;;;;;;;;10341722;28;20129;-58
2023/01/31 13:41:39;;;;;;;9.98;7.10;;;;;;;;;;10349122;28;20042;-59
2023/01/31 13:46:54;;;;;;;10.40;7.40;;;;;;;;;;10344778;28;20040;-54
2023/01/31 13:52:05;;;;;;;12.00;7.25;;;;;;;;;;10353676;28;20061;-58
2023/01/31 13:57:06;;;;;;;10.45;7.75;;;;;;;;;;10329782;28;20038;-54
2023/01/31 14:02:17;;;;;;;15.57;7.70;;;;;;;;;;10329701;28;20026;-55
2023/01/31 14:07:20;;;;;;;10.52;8.02;;;;;;;;;;10329346;28;20046;-61
2023/01/31 14:12:26;;;;;;;11.05;7.40;;;;;;;;;;10327955;28;20034;-56
2023/01/31 14:17:27;;;;;;;9.55;6.85;;;;;;;;;;10333431;28;20026;-59
2023/01/31 14:22:38;;;;;;;9.63;7.43;;;;;;;;;;10332175;28;20471;-61
2023/01/31 14:27:45;;;;;;;13.57;7.53;;;;;;;;;;10337408;28;20057;-62
2023/01/31 14:33:07;;;;;;;11.30;7.60;;;;;;;;;;10352665;28;20022;-54
2023/01/31 14:38:29;;;;;;;12.88;7.63;;;;;;;;;;10320904;28;20042;-56
2023/01/31 14:44:00;;;;;;;11.55;8.00;;;;;;;;;;10329703;28;20050;-55
2023/01/31 14:49:23;;;;;;;11.75;8.18;;;;;;;;;;10332236;28;20034;-55
2023/01/31 14:55:10;;;;;;;16.20;8.60;;;;;;;;;;10325823;28;20038;-57
2023/01/31 15:00:11;;;;;;;11.73;8.45;;;;;;;;;;10325638;28;20033;-56
2023/01/31 15:05:17;;;;;;;11.35;8.15;;;;;;;;;;10326503;28;20351;-55
2023/01/31 15:11:00;;;;;;;17.17;8.88;;;;;;;;;;10316237;28;20041;-57
2023/01/31 15:16:28;;;;;;;11.50;8.57;;;;;;;;;;10330715;28;20556;-54
2023/01/31 15:21:32;;;;;;;13.07;7.90;;;;;;;;;;10330986;28;20492;-56
2023/01/31 15:26:34;;;;;;;12.18;8.35;;;;;;;;;;10328580;28;20386;-54
2023/01/31 15:31:43;;;;;;;13.20;8.50;;;;;;;;;;10330124;28;20031;-54
2023/01/31 15:36:51;;;;;;;;;;;;;;;;;;10327359;28;20174;-54
2023/01/31 15:41:52;;;;;;;11.33;8.10;;;;;;;;;;10328681;28;19968;-56
2023/01/31 15:47:02;;;;;;;14.98;7.90;;;;;;;;;;10327487;28;20026;-56
2023/01/31 15:52:20;;;;;;;12.77;8.15;;;;;;;;;;10329633;28;20026;-54
2023/01/31 15:57:25;;;;;;;20.98;8.35;;;;;;;;;;10330478;28;20053;-57
2023/01/31 16:02:29;;;;;;;10.10;8.00;;;;;;;;;;10330227;28;20038;-54
2023/01/31 16:07:30;;;;;;;13.07;8.15;;;;;;;;;;10317492;28;20038;-54
2023/01/31 16:12:31;;;;;;;12.25;8.48;;;;;;;;;;10327586;28;20033;-58
2023/01/31 16:17:33;;;;;;;19.83;8.23;;;;;;;;;;10329885;28;20045;-54
2023/01/31 16:22:34;;;;;;;11.90;8.70;;;;;;;;;;10337283;28;20022;-58
2023/01/31 16:27:36;;;;;;;12.30;8.32;;;;;;;;;;10329510;28;20026;-56
2023/01/31 16:32:39;;;;;;;12.43;8.27;;;;;;;;;;10340343;28;20030;-54
2023/01/31 16:37:42;;;;;;;13.45;8.05;;;;;;;;;;10331752;28;20038;-51
2023/01/31 16:42:43;;;;;;;11.20;8.07;;;;;;;;;;10321743;28;20355;-54
2023/01/31 16:47:43;;;;;;;13.90;8.52;;;;;;;;;;10333581;28;20133;-62
2023/01/31 16:52:46;;;;;;;11.05;8.68;;;;;;;;;;10355240;28;20026;-55
2023/01/31 16:57:47;;;;;;;15.93;9.05;;;;;;;;;;10359866;28;20038;-53
2023/01/31 17:02:49;;;;;;;12.82;8.20;;;;;;;;;;10372559;28;20092;-50
2023/01/31 17:07:52;;;;;;;12.32;8.93;;;;;;;;;;10360255;28;20026;-53
2023/01/31 17:13:08;;;;;;;12.85;8.07;;;;;;;;;;10369970;28;20106;-50
2023/01/31 17:18:10;;;;;;;11.82;7.95;;;;;;;;;;10366948;28;20593;-54
2023/01/31 17:23:12;;;;;;;12.43;8.15;;;;;;;;;;10340531;28;20087;-53
2023/01/31 17:28:13;;;;;;;14.63;9.55;;;;;;;;;;10357790;28;20034;-64
2023/01/31 17:33:14;;;;;;;17.23;8.65;;;;;;;;;;10331344;28;20056;-60
2023/01/31 17:38:15;;;;;;;12.38;7.97;;;;;;;;;;10332592;28;20089;-61
2023/01/31 17:43:21;;;;;;;14.68;8.85;;;;;;;;;;10320200;28;20030;-51
2023/01/31 17:48:21;;;;;;;22.08;8.57;;;;;;;;;;10330993;28;20080;-61
2023/01/31 17:53:22;;;;;;;14.73;9.15;;;;;;;;;;10330074;28;20081;-64
2023/01/31 17:58:23;;;;;;;17.30;9.55;;;;;;;;;;10335642;28;20507;-67
2023/01/31 18:03:26;;;;;;;15.05;8.65;;;;;;;;;;10345835;28;20109;-60
2023/01/31 18:08:26;;;;;;;12.00;8.05;;;;;;;;;;10333700;28;20122;-60
2023/01/31 18:13:27;;;;;;;14.32;8.48;;;;;;;;;;10329546;28;20030;-54
2023/01/31 18:18:27;;;;;;;11.63;8.60;;;;;;;;;;10328968;28;20084;-62
2023/01/31 18:23:28;;;;;;;11.95;7.85;;;;;;;;;;10315682;28;20030;-61
2023/01/31 18:28:28;;;;;;;11.30;7.68;;;;;;;;;;10329916;28;20117;-64
2023/01/31 18:33:29;;;;;;;12.20;7.85;;;;;;;;;;10332655;28;20370;-64
2023/01/31 18:38:31;;;;;;;12.70;7.90;;;;;;;;;;10325378;28;20038;-63
2023/01/31 18:43:31;;;;;;;12.73;7.85;;;;;;;;;;10317841;28;20081;-64
2023/01/31 18:48:32;;;;;;;15.20;8.60;;;;;;;;;;10314007;28;20092;-64
2023/01/31 18:53:36;;;;;;;10.82;7.93;;;;;;;;;;10322366;28;20061;-60
2023/01/31 18:58:39;;;;;;;11.18;8.40;;;;;;;;;;10330075;28;20022;-60
2023/01/31 19:03:41;;;;;;;13.80;8.55;;;;;;;;;;10325877;28;20138;-62
2023/01/31 19:08:42;;;;;;;11.20;8.05;;;;;;;;;;10329675;28;20022;-63
2023/01/31 19:13:43;;;;;;;11.27;7.80;;;;;;;;;;10298217;28;20026;-63
2023/01/31 19:18:44;;;;;;;13.25;8.48;;;;;;;;;;10292079;28;20022;-63
2023/01/31 19:23:46;;;;;;;13.25;8.88;;;;;;;;;;10297783;28;20049;-64
2023/01/31 19:28:47;;;;;;;12.60;8.18;;;;;;;;;;10320702;28;20053;-62
2023/01/31 19:33:50;;;;;;;14.30;8.35;;;;;;;;;;10295322;28;20109;-64
2023/01/31 19:38:52;;;;;;;14.52;8.63;;;;;;;;;;10295695;28;20053;-60
2023/01/31 19:43:55;;;;;;;15.88;9.25;;;;;;;;;;10295820;28;20121;-63
2023/01/31 19:48:57;;;;;;;11.63;8.45;;;;;;;;;;10331972;28;20026;-63
2023/01/31 19:54:02;;;;;;;13.93;9.07;;;;;;;;;;10329929;28;20034;-63
2023/01/31 19:59:04;;;;;;;11.85;8.90;;;;;;;;;;10333981;28;20057;-64
2023/01/31 20:04:05;;;;;;;14.13;8.45;;;;;;;;;;10322670;28;20058;-56
2023/01/31 20:09:08;;;;;;;9.80;8.27;;;;;;;;;;10322349;28;20034;-61
2023/01/31 20:14:08;;;;;;;13.60;9.07;;;;;;;;;;10323593;28;20500;-59
2023/01/31 20:19:09;;;;;;;16.35;10.02;;;;;;;;;;10318518;28;20085;-57
2023/01/31 20:24:10;;;;;;;29.45;9.85;;;;;;;;;;10321538;28;20038;-63
2023/01/31 20:29:11;;;;;;;23.48;9.70;;;;;;;;;;10323630;28;20023;-63
2023/01/31 20:34:11;;;;;;;27.58;9.43;;;;;;;;;;10327187;28;20542;-62
2023/01/31 20:39:12;;;;;;;12.77;9.02;;;;;;;;;;10326672;28;20246;-62
2023/01/31 20:44:12;;;;;;;17.05;8.73;;;;;;;;;;10328811;28;20040;-64
2023/01/31 20:49:13;;;;;;;20.50;8.90;;;;;;;;;;10326664;28;20029;-63
2023/01/31 20:54:14;;;;;;;11.43;7.68;;;;;;;;;;10325450;28;20022;-64
2023/01/31 20:59:14;;;;;;;12.20;8.48;;;;;;;;;;10329611;28;20035;-64
2023/01/31 21:04:15;;;;;;;18.95;7.72;;;;;;;;;;10346462;28;20038;-62
2023/01/31 21:09:15;;;;;;;17.50;9.50;;;;;;;;;;10366463;28;20033;-63
2023/01/31 21:14:16;;;;;;;17.70;10.38;;;;;;;;;;10367307;28;20239;-62
2023/01/31 21:19:17;;;;;;;20.15;9.85;;;;;;;;;;10362402;28;20041;-64
2023/01/31 21:24:17;;;;;;;24.58;10.75;;;;;;;;;;10335950;28;20030;-64
2023/01/31 21:29:18;;;;;;;17.50;11.13;;;;;;;;;;10363023;28;20176;-63
2023/01/31 21:34:19;;;;;;;17.92;10.23;;;;;;;;;;10365743;28;20014;-58
2023/01/31 21:39:19;;;;;;;17.92;10.75;;;;;;;;;;10365250;28;20034;-58
2023/01/31 21:44:20;;;;;;;20.98;11.52;;;;;;;;;;10353831;28;20036;-56
2023/01/31 21:49:20;;;;;;;17.83;11.20;;;;;;;;;;10355745;28;20520;-54
2023/01/31 21:54:21;;;;;;;16.25;9.98;;;;;;;;;;10356525;28;20088;-55
2023/01/31 21:59:22;;;;;;;17.23;10.85;;;;;;;;;;10331319;28;20069;-54
2023/01/31 22:04:23;;;;;;;17.30;10.80;;;;;;;;;;10349926;28;20137;-54
2023/01/31 22:09:23;;;;;;;18.45;10.57;;;;;;;;;;10350534;28;20080;-54
2023/01/31 22:14:24;;;;;;;21.08;10.73;;;;;;;;;;10339628;28;20080;-55
2023/01/31 22:19:24;;;;;;;20.83;10.98;;;;;;;;;;10349606;28;20319;-58
2023/01/31 22:24:25;;;;;;;24.20;12.52;;;;;;;;;;10351560;28;20022;-60
2023/01/31 22:29:25;;;;;;;16.40;10.98;;;;;;;;;;10331789;28;23153;-61
2023/01/31 22:34:26;;;;;;;18.98;10.85;;;;;;;;;;10323552;28;20390;-57
2023/01/31 22:39:27;;;;;;;19.55;11.85;;;;;;;;;;10330151;28;20096;-60
2023/01/31 22:44:28;;;;;;;19.05;11.02;;;;;;;;;;10335457;28;20076;-62
2023/01/31 22:49:29;;;;;;;18.25;10.90;;;;;;;;;;10335170;28;20029;-58
2023/01/31 22:54:29;;;;;;;17.73;11.65;;;;;;;;;;10345116;28;20253;-64
2023/01/31 22:59:30;;;;;;;24.00;11.88;;;;;;;;;;10333703;28;20473;-63
2023/01/31 23:04:31;;;;;;;20.85;11.07;;;;;;;;;;10341440;28;20402;-63
2023/01/31 23:09:31;;;;;;;21.45;10.20;;;;;;;;;;10337325;28;20022;-64
2023/01/31 23:14:32;;;;;;;18.80;10.63;;;;;;;;;;10339512;28;20034;-64
2023/01/31 23:19:32;;;;;;;15.98;9.90;;;;;;;;;;10367353;28;20034;-60
2023/01/31 23:24:34;;;;;;;18.20;10.50;;;;;;;;;;10366028;28;20033;-55
2023/01/31 23:29:35;;;;;;;16.60;10.77;;;;;;;;;;10366037;28;20164;-55
2023/01/31 23:34:35;;;;;;;15.85;10.43;;;;;;;;;;10352171;28;20104;-58
2023/01/31 23:39:36;;;;;;;17.73;10.05;;;;;;;;;;10365219;28;20438;-63
2023/01/31 23:44:37;;;;;;;17.90;9.93;;;;;;;;;;10366215;28;20347;-56
2023/01/31 23:49:37;;;;;;;24.70;10.40;;;;;;;;;;10365917;28;20021;-59
2023/01/31 23:54:38;;;;;;;16.98;10.15;;;;;;;;;;10365361;28;20018;-62
2023/01/31 23:59:38;;;;;;;18.08;9.82;;;;;;;;;;10359764;28;20034;-59
